Time;durP1;ratioP1;P1;durP2;ratioP2;P2;SDS_P1;SDS_P2;PMS_P1;PMS_P2;Temp;Humidity;BMP_temperature;BMP_pressure;BME280_temperature;BME280_humidity;BME280_pressure;Samples;Min_cycle;Max_cycle;Signal;HPM_P1;HPM_P2
2024/02/12 00:00:49;;;;;;;8.50;6.25;;;8.60;99.90;;;;;;5039744;28;20495;-37
2024/02/12 00:03:17;;;;;;;8.95;6.97;;;8.60;99.90;;;;;;5039441;28;20112;-35
2024/02/12 00:05:46;;;;;;;10.00;7.05;;;8.50;99.90;;;;;;5039712;28;20104;-36
2024/02/12 00:08:15;;;;;;;9.07;6.88;;;8.50;99.90;;;;;;5039285;28;20412;-36
2024/02/12 00:10:41;;;;;;;9.48;6.82;;;8.50;99.90;;;;;;5039003;28;20025;-32
2024/02/12 00:13:07;;;;;;;9.32;7.20;;;8.50;99.90;;;;;;5039589;28;20074;-32
2024/02/12 00:15:33;;;;;;;8.40;6.18;;;8.40;99.90;;;;;;5040046;28;20411;-35
2024/02/12 00:17:59;;;;;;;10.02;6.82;;;8.40;99.90;;;;;;5038846;28;20029;-33
2024/02/12 00:20:29;;;;;;;8.05;6.53;;;8.40;99.90;;;;;;5039302;28;20826;-36
2024/02/12 00:22:55;;;;;;;8.68;6.57;;;8.40;99.90;;;;;;5038967;28;20025;-35
2024/02/12 00:25:21;;;;;;;7.50;6.22;;;8.40;99.90;;;;;;5039567;28;20032;-32
2024/02/12 00:27:48;;;;;;;7.60;6.60;;;8.40;99.90;;;;;;5039872;28;20029;-35
2024/02/12 00:30:15;;;;;;;8.10;6.68;;;8.30;99.90;;;;;;5038401;28;20035;-34
2024/02/12 00:32:43;;;;;;;9.48;6.07;;;8.40;99.90;;;;;;5040446;28;20220;-35
2024/02/12 00:35:09;;;;;;;8.23;6.40;;;8.40;99.90;;;;;;5039292;28;20033;-37
2024/02/12 00:37:34;;;;;;;7.50;6.30;;;8.40;99.90;;;;;;5039118;28;20557;-37
2024/02/12 00:40:03;;;;;;;8.45;6.63;;;8.50;99.90;;;;;;5039292;28;20380;-36
2024/02/12 00:42:28;;;;;;;8.10;6.53;;;8.50;99.90;;;;;;5039488;28;20067;-37
2024/02/12 00:44:56;;;;;;;8.30;6.35;;;8.60;99.90;;;;;;5037971;28;20025;-36
2024/02/12 00:47:25;;;;;;;9.35;6.63;;;8.50;99.90;;;;;;5038542;28;20613;-36
2024/02/12 00:49:51;;;;;;;9.60;6.70;;;8.60;99.90;;;;;;5038873;28;20346;-34
2024/02/12 00:52:23;;;;;;;8.43;6.90;;;8.60;99.90;;;;;;5038644;28;20708;-36
2024/02/12 00:54:51;;;;;;;10.00;6.75;;;8.60;99.90;;;;;;5039043;28;20033;-36
2024/02/12 00:57:17;;;;;;;8.73;6.75;;;8.60;99.90;;;;;;5039386;28;20021;-34
2024/02/12 00:59:43;;;;;;;8.80;6.32;;;8.60;99.90;;;;;;5038481;28;20029;-33
2024/02/12 01:02:11;;;;;;;7.78;6.38;;;8.60;99.90;;;;;;5038715;28;20028;-35
2024/02/12 01:04:37;;;;;;;9.63;6.70;;;8.60;99.90;;;;;;5039309;28;20029;-35
2024/02/12 01:07:06;;;;;;;10.27;7.18;;;8.70;99.90;;;;;;5038276;28;20476;-35
2024/02/12 01:09:32;;;;;;;9.73;6.75;;;8.70;99.90;;;;;;5039144;28;20087;-37
2024/02/12 01:12:00;;;;;;;8.73;6.80;;;8.70;99.90;;;;;;5038073;28;20124;-33
2024/02/12 01:14:28;;;;;;;11.15;7.93;;;8.70;99.90;;;;;;5038881;28;20040;-36
2024/02/12 01:16:55;;;;;;;9.85;7.95;;;8.70;99.90;;;;;;5038912;28;20029;-35
2024/02/12 01:19:24;;;;;;;9.57;7.60;;;8.80;99.90;;;;;;5038818;28;20028;-38
2024/02/12 01:21:50;;;;;;;9.82;7.20;;;8.80;99.90;;;;;;5039051;28;20408;-37
2024/02/12 01:24:16;;;;;;;8.60;6.78;;;8.80;99.90;;;;;;5039166;28;20536;-36
2024/02/12 01:26:42;;;;;;;10.10;7.47;;;8.80;99.90;;;;;;5038282;28;20024;-37
2024/02/12 01:29:07;;;;;;;10.40;7.90;;;8.80;99.90;;;;;;5038679;28;20148;-34
2024/02/12 01:31:36;;;;;;;11.18;7.82;;;8.80;99.90;;;;;;5038770;28;21058;-36
2024/02/12 01:34:04;;;;;;;11.68;7.72;;;8.80;99.90;;;;;;5038414;28;20044;-34
2024/02/12 01:36:33;;;;;;;12.48;9.00;;;8.80;99.90;;;;;;5039114;28;20021;-35
2024/02/12 01:38:58;;;;;;;12.82;8.57;;;8.80;99.90;;;;;;5041260;28;20032;-34
2024/02/12 01:41:24;;;;;;;11.55;8.40;;;8.80;99.90;;;;;;5042012;28;20404;-35
2024/02/12 01:43:51;;;;;;;10.45;7.93;;;8.80;99.90;;;;;;5042784;28;20032;-36
2024/02/12 01:46:19;;;;;;;10.20;8.02;;;8.90;99.90;;;;;;5042738;28;20029;-35
2024/02/12 01:48:45;;;;;;;9.48;7.60;;;8.80;99.90;;;;;;5042241;28;20028;-35
2024/02/12 01:51:12;;;;;;;11.00;8.63;;;8.80;99.90;;;;;;5042819;28;20430;-32
2024/02/12 01:53:39;;;;;;;11.90;8.57;;;8.90;99.90;;;;;;5042696;28;20470;-35
2024/02/12 01:56:08;;;;;;;10.85;8.35;;;8.80;99.90;;;;;;5041613;28;20071;-35
2024/02/12 01:58:40;;;;;;;12.20;8.13;;;8.80;99.90;;;;;;5041824;28;20032;-34
2024/02/12 02:01:07;;;;;;;10.90;7.65;;;8.90;99.90;;;;;;5041990;28;20049;-35
2024/02/12 02:03:35;;;;;;;10.90;8.07;;;8.90;99.90;;;;;;5041207;28;20027;-35
2024/02/12 02:06:01;;;;;;;9.93;7.43;;;8.90;99.90;;;;;;5041784;28;20032;-33
2024/02/12 02:08:37;;;;;;;10.43;7.25;;;8.80;99.90;;;;;;5041217;28;20045;-36
2024/02/12 02:11:15;;;;;;;9.80;7.03;;;8.80;99.90;;;;;;5041966;28;20029;-35
2024/02/12 02:13:43;;;;;;;9.57;7.25;;;8.90;99.90;;;;;;5041929;28;20040;-35
2024/02/12 02:16:09;;;;;;;12.38;7.50;;;8.90;99.90;;;;;;5041575;28;20045;-37
2024/02/12 02:18:36;;;;;;;9.85;7.15;;;8.80;99.90;;;;;;5041154;28;20076;-36
2024/02/12 02:21:05;;;;;;;12.07;7.65;;;8.90;99.90;;;;;;5041191;28;20475;-33
2024/02/12 02:23:31;;;;;;;9.90;8.20;;;8.90;99.90;;;;;;5040309;28;20179;-37
2024/02/12 02:25:56;;;;;;;12.63;8.38;;;8.90;99.90;;;;;;5041357;28;20037;-33
2024/02/12 02:28:27;;;;;;;12.68;8.95;;;8.90;99.90;;;;;;5041154;28;20790;-35
2024/02/12 02:30:53;;;;;;;13.15;8.82;;;8.90;99.90;;;;;;5040593;28;20058;-35
2024/02/12 02:33:19;;;;;;;14.20;9.13;;;8.90;99.90;;;;;;5040922;28;20210;-33
2024/02/12 02:35:45;;;;;;;12.40;8.90;;;8.90;99.90;;;;;;5041191;28;20037;-33
2024/02/12 02:38:20;;;;;;;10.20;8.18;;;8.90;99.90;;;;;;5040537;28;20574;-31
2024/02/12 02:40:45;;;;;;;9.88;8.10;;;8.90;99.90;;;;;;5042074;28;20033;-38
2024/02/12 02:43:15;;;;;;;11.90;8.20;;;8.90;99.90;;;;;;5040560;28;20455;-32
2024/02/12 02:45:41;;;;;;;10.60;7.80;;;8.90;99.90;;;;;;5041160;28;20231;-32
2024/02/12 02:48:07;;;;;;;12.82;8.20;;;9.00;99.90;;;;;;5040893;28;20025;-35
2024/02/12 02:50:34;;;;;;;12.15;8.35;;;9.00;99.90;;;;;;5039644;28;20172;-32
2024/02/12 02:53:01;;;;;;;12.20;8.85;;;8.90;99.90;;;;;;5041066;28;20510;-33
2024/02/12 02:55:28;;;;;;;11.32;8.65;;;8.90;99.90;;;;;;5040462;28;20032;-34
2024/02/12 02:57:54;;;;;;;14.65;8.38;;;8.90;99.90;;;;;;5039925;28;20812;-36
2024/02/12 03:00:25;;;;;;;12.35;9.10;;;8.90;99.90;;;;;;5040556;28;20025;-36
2024/02/12 03:02:52;;;;;;;13.32;9.23;;;8.90;99.90;;;;;;5040651;28;20025;-35
2024/02/12 03:05:18;;;;;;;13.70;9.55;;;8.90;99.90;;;;;;5039600;28;20036;-37
2024/02/12 03:07:47;;;;;;;12.82;9.25;;;8.90;99.90;;;;;;5040871;28;20040;-37
2024/02/12 03:10:19;;;;;;;11.48;8.43;;;8.90;99.90;;;;;;5040624;28;20044;-36
2024/02/12 03:12:45;;;;;;;12.33;8.97;;;8.90;99.90;;;;;;5040665;28;20571;-37
2024/02/12 03:15:15;;;;;;;11.45;9.00;;;8.90;99.90;;;;;;5039865;28;20041;-35
2024/02/12 03:17:43;;;;;;;13.68;9.15;;;8.90;99.90;;;;;;5040688;28;20491;-35
2024/02/12 03:20:12;;;;;;;10.88;8.27;;;8.90;99.90;;;;;;5039645;28;20037;-35
2024/02/12 03:22:43;;;;;;;11.02;8.45;;;8.90;99.90;;;;;;5040109;28;20095;-36
2024/02/12 03:25:13;;;;;;;12.57;8.53;;;8.90;99.90;;;;;;5040059;28;20492;-37
2024/02/12 03:27:41;;;;;;;12.93;8.88;;;8.90;99.90;;;;;;5040487;28;20032;-35
2024/02/12 03:30:09;;;;;;;11.52;8.25;;;8.90;99.90;;;;;;5040630;28;20051;-35
2024/02/12 03:32:36;;;;;;;11.50;7.63;;;8.90;99.90;;;;;;5039913;28;20079;-36
2024/02/12 03:35:02;;;;;;;12.02;8.90;;;8.90;99.90;;;;;;5040386;28;20057;-38
2024/02/12 03:37:28;;;;;;;13.30;8.07;;;8.80;99.90;;;;;;5040331;28;20174;-37
2024/02/12 03:39:53;;;;;;;10.38;8.10;;;8.80;99.90;;;;;;5039738;28;20105;-36
2024/02/12 03:42:26;;;;;;;12.93;8.82;;;8.70;99.90;;;;;;5040073;28;20021;-37
2024/02/12 03:44:55;;;;;;;14.30;9.73;;;8.70;99.90;;;;;;5039636;28;20025;-35
2024/02/12 03:47:27;;;;;;;13.18;9.38;;;8.60;99.90;;;;;;5039296;28;20028;-33
2024/02/12 04:00:55;;;;;;;13.80;9.20;;;8.50;99.90;;;;;;5038861;28;20040;-37
2024/02/12 04:03:21;;;;;;;13.52;9.32;;;8.50;99.90;;;;;;5039564;28;20063;-37
2024/02/12 04:05:46;;;;;;;12.57;9.13;;;8.50;99.90;;;;;;5039982;28;20024;-34
2024/02/12 04:08:12;;;;;;;15.07;10.65;;;8.50;99.90;;;;;;5038600;28;20075;-33
2024/02/12 04:10:37;;;;;;;14.48;10.15;;;8.50;99.90;;;;;;5039531;28;20033;-38
2024/02/12 04:13:06;;;;;;;13.25;9.98;;;8.40;99.90;;;;;;5039108;28;20500;-35
2024/02/12 04:15:38;;;;;;;14.77;10.68;;;8.40;99.90;;;;;;5038553;28;20116;-37
2024/02/12 04:18:06;;;;;;;15.95;10.32;;;8.30;99.90;;;;;;5039455;28;20031;-37
2024/02/12 04:20:31;;;;;;;15.88;10.20;;;8.30;99.90;;;;;;5039802;28;20036;-36
2024/02/12 04:23:01;;;;;;;12.80;9.18;;;8.30;99.90;;;;;;5038256;28;20021;-34
2024/02/12 04:25:27;;;;;;;12.73;8.77;;;8.30;99.90;;;;;;5039142;28;20820;-35
2024/02/12 04:27:54;;;;;;;15.13;9.70;;;8.30;99.90;;;;;;5038965;28;20119;-34
2024/02/12 04:30:20;;;;;;;12.48;8.57;;;8.30;99.90;;;;;;5038655;28;20024;-38
2024/02/12 04:32:52;;;;;;;12.50;8.70;;;8.30;99.90;;;;;;5038917;28;20780;-38
2024/02/12 04:35:18;;;;;;;14.20;9.23;;;8.30;99.90;;;;;;5039558;28;20041;-36
2024/02/12 04:37:45;;;;;;;16.60;9.20;;;8.30;99.90;;;;;;5039198;28;20028;-37
2024/02/12 04:40:12;;;;;;;13.38;9.50;;;8.30;99.90;;;;;;5039251;28;20064;-37
2024/02/12 04:42:38;;;;;;;14.75;8.93;;;8.30;99.90;;;;;;5039734;28;20036;-36
2024/02/12 04:45:04;;;;;;;13.82;9.07;;;8.20;99.90;;;;;;5038575;28;20084;-34
2024/02/12 04:47:29;;;;;;;14.88;9.85;;;8.20;99.90;;;;;;5039090;28;20517;-36
2024/02/12 04:49:55;;;;;;;13.27;9.20;;;8.20;99.90;;;;;;5038870;28;20025;-37
2024/02/12 04:52:20;;;;;;;12.55;9.20;;;8.10;99.90;;;;;;5039073;28;20035;-37
2024/02/12 04:54:46;;;;;;;14.52;9.80;;;8.10;99.90;;;;;;5038647;28;20103;-36
2024/02/12 04:57:12;;;;;;;13.55;9.38;;;8.00;99.90;;;;;;5038189;28;20124;-34
2024/02/12 04:59:38;;;;;;;15.85;10.52;;;7.90;99.90;;;;;;5039107;28;20111;-37
2024/02/12 05:02:04;;;;;;;16.60;10.88;;;7.90;99.90;;;;;;5038930;28;20048;-34
2024/02/12 05:04:30;;;;;;;14.52;9.85;;;7.80;99.90;;;;;;5037925;28;20021;-36
2024/02/12 05:06:56;;;;;;;13.45;9.35;;;7.80;99.90;;;;;;5039297;28;20025;-36
2024/02/12 05:09:22;;;;;;;14.45;9.80;;;7.70;99.90;;;;;;5038813;28;20080;-37
2024/02/12 05:11:49;;;;;;;12.30;9.20;;;7.70;99.90;;;;;;5038570;28;20108;-36
2024/02/12 05:14:14;;;;;;;16.38;10.35;;;7.60;99.90;;;;;;5042645;28;20041;-38
2024/02/12 05:16:45;;;;;;;15.55;10.18;;;7.50;99.90;;;;;;5043066;28;20033;-36
2024/02/12 05:24:39;;;;;;;16.77;10.10;;;7.50;99.90;;;;;;5043208;28;20047;-36
2024/02/12 05:27:04;;;;;;;15.25;10.18;;;7.50;99.90;;;;;;5042369;28;20388;-34
2024/02/12 05:29:30;;;;;;;13.77;9.68;;;7.50;99.90;;;;;;5041940;28;20091;-33
2024/02/12 05:31:56;;;;;;;16.55;10.60;;;7.60;99.90;;;;;;5042601;28;20035;-35
2024/02/12 05:34:23;;;;;;;13.95;9.55;;;7.50;99.90;;;;;;5041106;28;20047;-36
2024/02/12 05:36:49;;;;;;;14.90;9.55;;;7.50;99.90;;;;;;5042721;28;20029;-29
2024/02/12 05:39:16;;;;;;;17.75;10.65;;;7.50;99.90;;;;;;5041314;28;20037;-35
2024/02/12 05:41:42;;;;;;;14.02;9.77;;;7.50;99.90;;;;;;5042865;28;20033;-35
2024/02/12 05:44:07;;;;;;;15.43;10.80;;;7.50;99.90;;;;;;5041977;28;20640;-37
2024/02/12 05:46:34;;;;;;;17.23;11.13;;;7.50;99.90;;;;;;5041264;28;20032;-38
2024/02/12 05:49:00;;;;;;;15.98;10.40;;;7.40;99.90;;;;;;5042226;28;20116;-35
2024/02/12 05:51:26;;;;;;;17.42;10.25;;;7.40;99.90;;;;;;5042135;28;20032;-36
2024/02/12 05:53:52;;;;;;;16.02;10.90;;;7.30;99.90;;;;;;5041724;28;20040;-36
2024/02/12 05:56:19;;;;;;;17.17;11.40;;;7.30;99.90;;;;;;5041685;28;20029;-34
2024/02/12 05:58:45;;;;;;;17.67;11.90;;;7.30;99.90;;;;;;5041835;28;20032;-35
2024/02/12 06:01:11;;;;;;;19.20;12.05;;;7.20;99.90;;;;;;5041067;28;20063;-36
2024/02/12 06:03:37;;;;;;;17.40;11.23;;;7.20;99.90;;;;;;5041850;28;20065;-35
2024/02/12 06:06:02;;;;;;;20.42;12.95;;;7.20;99.90;;;;;;5041167;28;20032;-32
2024/02/12 06:08:31;;;;;;;20.05;12.02;;;7.30;99.90;;;;;;5041386;28;20044;-36
2024/02/12 06:10:57;;;;;;;18.83;12.30;;;7.30;99.90;;;;;;5041405;28;20036;-37
2024/02/12 06:13:22;;;;;;;19.95;12.70;;;7.30;99.90;;;;;;5041542;28;20760;-35
2024/02/12 06:15:48;;;;;;;19.85;12.52;;;7.30;99.90;;;;;;5041635;28;20795;-35
2024/02/12 06:18:15;;;;;;;17.67;11.75;;;7.30;99.90;;;;;;5041592;28;20040;-35
2024/02/12 06:20:41;;;;;;;17.58;11.38;;;7.40;99.90;;;;;;5041905;28;20108;-35
2024/02/12 06:23:06;;;;;;;17.55;11.63;;;7.40;99.90;;;;;;5041052;28;20040;-37
2024/02/12 06:25:32;;;;;;;19.75;12.00;;;7.40;99.90;;;;;;5040845;28;20468;-35
2024/02/12 06:27:57;;;;;;;19.08;12.15;;;7.50;99.90;;;;;;5041143;28;20780;-37
2024/02/12 06:30:23;;;;;;;17.55;12.13;;;7.50;99.90;;;;;;5040810;28;20078;-35
2024/02/12 06:32:49;;;;;;;19.55;13.25;;;7.60;99.90;;;;;;5041567;28;20091;-38
2024/02/12 06:35:16;;;;;;;20.48;13.13;;;7.60;99.90;;;;;;5041230;28;20043;-38
2024/02/12 06:37:46;;;;;;;22.58;13.25;;;7.60;99.90;;;;;;5041004;28;20040;-37
2024/02/12 06:40:12;;;;;;;18.42;12.00;;;7.70;99.90;;;;;;5041025;28;20055;-37
2024/02/12 06:42:42;;;;;;;20.33;12.43;;;7.70;99.90;;;;;;5040653;28;20029;-36
2024/02/12 06:45:08;;;;;;;21.17;12.10;;;7.70;99.90;;;;;;5041176;28;20029;-34
2024/02/12 06:47:33;;;;;;;17.42;11.80;;;7.70;99.90;;;;;;5040121;28;20510;-34
2024/02/12 06:49:59;;;;;;;18.45;11.60;;;7.70;99.90;;;;;;5039800;28;20116;-36
2024/02/12 06:52:24;;;;;;;21.13;12.43;;;7.70;99.90;;;;;;5040848;28;20120;-36
2024/02/12 06:54:50;;;;;;;18.40;12.35;;;7.70;99.90;;;;;;5040839;28;20785;-37
2024/02/12 06:57:16;;;;;;;19.52;12.52;;;7.70;99.90;;;;;;5039760;28;20839;-33
2024/02/12 06:59:42;;;;;;;18.20;11.60;;;7.80;99.90;;;;;;5040705;28;20056;-37
2024/02/12 07:02:09;;;;;;;17.75;11.50;;;7.80;99.90;;;;;;5040603;28;20096;-37
2024/02/12 07:04:34;;;;;;;20.10;11.77;;;7.80;99.90;;;;;;5040123;28;20201;-35
2024/02/12 07:07:00;;;;;;;19.10;11.95;;;7.80;99.90;;;;;;5040531;28;20040;-35
2024/02/12 07:09:26;;;;;;;19.33;11.88;;;7.80;99.90;;;;;;5039814;28;20071;-38
2024/02/12 07:11:52;;;;;;;19.13;12.20;;;7.80;99.90;;;;;;5039702;28;20216;-33
2024/02/12 07:14:18;;;;;;;18.73;12.68;;;7.90;99.90;;;;;;5039810;28;20072;-35
2024/02/12 07:16:44;;;;;;;19.27;12.13;;;7.90;99.90;;;;;;5040823;28;20166;-32
2024/02/12 07:19:10;;;;;;;19.58;11.57;;;7.90;99.90;;;;;;5038988;28;20144;-36
2024/02/12 07:21:36;;;;;;;21.02;12.82;;;7.90;99.90;;;;;;5041046;28;20029;-36
2024/02/12 07:24:03;;;;;;;18.13;12.05;;;7.90;99.90;;;;;;5039929;28;20025;-36
2024/02/12 07:26:30;;;;;;;16.67;11.73;;;8.00;99.90;;;;;;5039888;28;20095;-35
2024/02/12 07:28:55;;;;;;;17.95;12.07;;;8.00;99.90;;;;;;5040083;28;20029;-35
2024/02/12 07:31:21;;;;;;;17.63;12.15;;;8.00;99.90;;;;;;5039586;28;20035;-37
2024/02/12 07:33:46;;;;;;;18.55;12.50;;;8.10;99.90;;;;;;5039267;28;20032;-37
2024/02/12 07:36:12;;;;;;;15.73;10.88;;;8.10;99.90;;;;;;5038940;28;20037;-34
2024/02/12 07:38:42;;;;;;;16.85;11.50;;;8.10;99.90;;;;;;5040093;28;20023;-37
2024/02/12 07:41:08;;;;;;;18.17;11.85;;;8.10;99.90;;;;;;5040219;28;20111;-35
2024/02/12 07:43:35;;;;;;;20.25;11.60;;;8.10;99.90;;;;;;5039789;28;20028;-37
2024/02/12 07:46:01;;;;;;;17.73;10.95;;;8.20;99.90;;;;;;5039311;28;20072;-36
2024/02/12 07:48:28;;;;;;;17.70;11.07;;;8.10;99.90;;;;;;5038646;28;20719;-37
2024/02/12 07:50:55;;;;;;;15.95;11.23;;;8.10;99.90;;;;;;5028349;28;20025;-36
2024/02/12 07:53:26;;;;;;;16.02;11.18;;;8.10;99.90;;;;;;5038567;28;20112;-38
2024/02/12 07:55:52;;;;;;;15.80;10.45;;;8.10;99.90;;;;;;5040083;28;20036;-36
2024/02/12 07:58:20;;;;;;;14.85;10.05;;;8.10;99.90;;;;;;5039755;28;20361;-35
2024/02/12 08:00:48;;;;;;;17.85;9.95;;;8.10;99.90;;;;;;5039662;28;20100;-36
2024/02/12 08:03:19;;;;;;;14.13;9.70;;;8.20;99.90;;;;;;5034527;28;20029;-37
2024/02/12 08:05:46;;;;;;;16.63;10.65;;;8.20;99.90;;;;;;5037925;28;20499;-34
2024/02/12 08:08:13;;;;;;;15.93;10.35;;;8.20;99.90;;;;;;5037287;28;20041;-35
2024/02/12 08:10:38;;;;;;;13.25;9.27;;;8.20;99.90;;;;;;5039226;28;20028;-36
2024/02/12 08:13:04;;;;;;;13.45;9.65;;;8.20;99.90;;;;;;5038462;28;20017;-36
2024/02/12 08:15:30;;;;;;;13.30;9.00;;;8.30;99.90;;;;;;5036410;28;20422;-37
2024/02/12 08:17:56;;;;;;;13.50;9.20;;;8.30;99.90;;;;;;5038326;28;20098;-36
2024/02/12 08:20:22;;;;;;;13.77;9.23;;;8.30;99.90;;;;;;5039075;28;20539;-34
2024/02/12 08:22:49;;;;;;;12.18;8.48;;;8.30;99.90;;;;;;5038895;28;20024;-34
2024/02/12 08:25:15;;;;;;;12.25;8.25;;;8.30;99.90;;;;;;5038527;28;20033;-37
2024/02/12 08:27:40;;;;;;;11.55;8.23;;;8.40;99.90;;;;;;5039392;28;20035;-32
2024/02/12 08:30:06;;;;;;;11.57;8.02;;;8.40;99.90;;;;;;5037538;28;20032;-31
2024/02/12 08:32:33;;;;;;;13.18;8.80;;;8.40;99.90;;;;;;5038227;28;20140;-33
2024/02/12 08:34:58;;;;;;;12.77;9.10;;;8.40;99.90;;;;;;5035930;28;20024;-33
2024/02/12 08:37:24;;;;;;;11.98;8.82;;;8.50;99.90;;;;;;5035686;28;20033;-36
2024/02/12 08:39:50;;;;;;;12.27;8.82;;;8.50;99.90;;;;;;5035573;28;20020;-34
2024/02/12 08:42:15;;;;;;;11.80;8.48;;;8.60;99.90;;;;;;5035554;28;20106;-35
2024/02/12 08:44:49;;;;;;;11.30;8.82;;;8.60;99.90;;;;;;5035873;28;20712;-34
2024/02/12 08:47:15;;;;;;;11.18;8.80;;;8.70;99.90;;;;;;5036109;28;20021;-36
2024/02/12 08:49:43;;;;;;;13.45;8.82;;;8.70;99.90;;;;;;5042236;28;20473;-36
2024/02/12 08:52:08;;;;;;;12.55;9.50;;;8.70;99.90;;;;;;5042927;28;20035;-36
2024/02/12 08:54:34;;;;;;;13.82;9.30;;;8.70;99.90;;;;;;5042094;28;20041;-34
2024/02/12 08:56:59;;;;;;;12.68;8.93;;;8.80;99.90;;;;;;5040117;28;20025;-36
2024/02/12 08:59:25;;;;;;;14.68;10.95;;;8.80;99.90;;;;;;5041270;28;20317;-37
2024/02/12 09:01:52;;;;;;;15.20;10.32;;;8.90;99.90;;;;;;5041112;28;20409;-37
2024/02/12 09:04:17;;;;;;;13.70;9.38;;;8.90;99.90;;;;;;5040254;28;20713;-38
2024/02/12 09:06:46;;;;;;;14.32;10.38;;;8.90;99.90;;;;;;5040977;28;20092;-37
2024/02/12 09:09:14;;;;;;;14.15;9.80;;;9.00;99.90;;;;;;5040997;28;20148;-35
2024/02/12 09:11:42;;;;;;;14.23;9.95;;;9.00;99.90;;;;;;5042630;28;20091;-37
2024/02/12 09:14:08;;;;;;;12.60;9.65;;;9.10;99.90;;;;;;5042456;28;20048;-37
2024/02/12 09:16:36;;;;;;;17.38;10.75;;;9.10;99.90;;;;;;5042326;28;20784;-34
2024/02/12 09:19:02;;;;;;;16.02;11.73;;;9.10;99.90;;;;;;5042467;28;20017;-35
2024/02/12 09:21:28;;;;;;;17.70;12.38;;;9.10;99.90;;;;;;5041800;28;20024;-34
2024/02/12 09:23:54;;;;;;;15.93;12.00;;;9.10;99.90;;;;;;5042312;28;20028;-36
2024/02/12 09:26:19;;;;;;;18.73;12.77;;;9.10;99.90;;;;;;5041585;28;20469;-37
2024/02/12 09:28:45;;;;;;;16.35;12.23;;;9.10;99.90;;;;;;5042642;28;20013;-37
2024/02/12 09:31:10;;;;;;;17.02;11.57;;;9.10;99.90;;;;;;5043053;28;20384;-35
2024/02/12 09:33:36;;;;;;;21.10;13.75;;;9.00;99.90;;;;;;5041704;28;20094;-33
2024/02/12 09:36:02;;;;;;;19.88;13.52;;;9.10;99.90;;;;;;5042356;28;20095;-36
2024/02/12 09:38:27;;;;;;;18.02;12.63;;;9.00;99.90;;;;;;5041062;28;20532;-36
2024/02/12 09:40:53;;;;;;;19.48;12.70;;;9.00;99.90;;;;;;5042747;28;20033;-35
2024/02/12 09:43:23;;;;;;;20.15;13.32;;;9.00;99.90;;;;;;5041601;28;20063;-36
2024/02/12 09:45:54;;;;;;;19.52;12.93;;;9.00;99.90;;;;;;5041311;28;20098;-37
2024/02/12 09:48:21;;;;;;;19.95;13.48;;;9.00;99.90;;;;;;5041771;28;20048;-36
2024/02/12 09:50:50;;;;;;;16.92;12.38;;;9.00;99.90;;;;;;5042742;28;20112;-37
2024/02/12 09:53:19;;;;;;;17.40;12.15;;;9.10;99.90;;;;;;5040879;28;20025;-37
2024/02/12 09:55:48;;;;;;;16.38;11.25;;;9.10;99.90;;;;;;5041999;28;20045;-38
2024/02/12 09:58:18;;;;;;;19.45;12.52;;;9.10;99.90;;;;;;5043949;28;20150;-37
2024/02/12 10:00:44;;;;;;;21.25;13.25;;;9.10;99.90;;;;;;5040208;28;20466;-35
2024/02/12 10:03:13;;;;;;;19.40;13.20;;;9.00;99.90;;;;;;5041261;28;20052;-35
2024/02/12 10:05:41;;;;;;;20.70;13.93;;;9.00;99.90;;;;;;5041803;28;20029;-38
2024/02/12 10:08:19;;;;;;;19.35;13.02;;;9.00;99.90;;;;;;5040067;28;20713;-37
2024/02/12 10:10:44;;;;;;;19.65;12.95;;;9.00;99.90;;;;;;5032601;28;20072;-39
2024/02/12 10:13:10;;;;;;;17.40;11.88;;;9.10;99.90;;;;;;5041260;28;20531;-33
2024/02/12 10:15:35;;;;;;;18.45;12.30;;;9.10;99.90;;;;;;5040829;28;20654;-36
2024/02/12 10:18:04;;;;;;;18.33;13.57;;;9.30;99.90;;;;;;5041259;28;20031;-36
2024/02/12 10:20:29;;;;;;;22.40;15.10;;;9.40;99.90;;;;;;5040019;28;20116;-32
2024/02/12 10:22:57;;;;;;;18.33;13.13;;;9.60;99.90;;;;;;5042136;28;20025;-35
2024/02/12 10:25:23;;;;;;;16.55;11.75;;;9.70;99.90;;;;;;5040945;28;20500;-33
2024/02/12 10:27:49;;;;;;;17.70;11.93;;;9.80;99.90;;;;;;5040929;28;20033;-34
2024/02/12 10:30:18;;;;;;;16.02;11.45;;;9.80;99.90;;;;;;5040770;28;20067;-34
2024/02/12 10:32:49;;;;;;;13.70;10.43;;;9.90;99.90;;;;;;5040797;28;20067;-34
2024/02/12 10:35:20;;;;;;;14.77;11.20;;;9.90;99.90;;;;;;5039460;28;20117;-37
2024/02/12 10:37:47;;;;;;;15.63;11.00;;;10.00;99.90;;;;;;5040721;28;20587;-36
2024/02/12 10:40:17;;;;;;;13.32;10.13;;;10.00;99.90;;;;;;5040681;28;20052;-37
2024/02/12 10:42:51;;;;;;;14.70;10.48;;;10.00;99.90;;;;;;5040331;28;20380;-37
2024/02/12 10:45:18;;;;;;;12.82;10.18;;;10.00;99.90;;;;;;5039945;28;20025;-35
2024/02/12 10:47:45;;;;;;;12.68;9.75;;;9.90;99.90;;;;;;5040768;28;20111;-37
2024/02/12 10:50:13;;;;;;;12.40;9.18;;;10.00;99.90;;;;;;5039170;28;20103;-35
2024/02/12 10:52:41;;;;;;;12.35;8.93;;;10.00;99.90;;;;;;5040922;28;20021;-37
2024/02/12 10:55:09;;;;;;;12.93;8.60;;;9.90;99.90;;;;;;5040342;28;20093;-34
2024/02/12 10:57:43;;;;;;;11.57;8.57;;;10.00;99.90;;;;;;5039343;28;20105;-39
2024/02/12 11:00:23;;;;;;;11.75;9.02;;;10.00;99.90;;;;;;5038315;28;20044;-37
2024/02/12 11:03:05;;;;;;;11.23;8.02;;;10.10;99.90;;;;;;5037968;28;20391;-37
2024/02/12 11:05:36;;;;;;;11.23;7.88;;;10.10;99.90;;;;;;5038033;28;20588;-38
2024/02/12 11:08:18;;;;;;;11.68;7.95;;;10.10;99.90;;;;;;5039084;28;20120;-34
2024/02/12 11:10:49;;;;;;;9.43;6.65;;;10.10;99.90;;;;;;5037992;28;20029;-35
2024/02/12 11:13:16;;;;;;;9.82;7.18;;;10.10;99.90;;;;;;5038424;28;20812;-34
2024/02/12 11:15:52;;;;;;;9.75;7.10;;;10.20;99.90;;;;;;5039552;28;20061;-36
2024/02/12 11:18:25;;;;;;;9.70;7.32;;;10.30;99.90;;;;;;5039663;28;20159;-36
2024/02/12 11:20:55;;;;;;;10.25;6.78;;;10.30;99.90;;;;;;5039689;28;20029;-36
2024/02/12 11:23:25;;;;;;;8.30;6.97;;;10.40;99.90;;;;;;5039157;28;20753;-36
2024/02/12 11:25:59;;;;;;;8.30;6.32;;;10.30;99.90;;;;;;5039356;28;20024;-34
2024/02/12 11:28:27;;;;;;;9.57;7.05;;;10.30;99.90;;;;;;5040033;28;20079;-32
2024/02/12 11:30:53;;;;;;;9.68;6.90;;;10.30;99.90;;;;;;5039305;28;20564;-33
2024/02/12 11:33:19;;;;;;;9.98;6.68;;;10.20;99.90;;;;;;5028262;28;20083;-31
2024/02/12 11:35:45;;;;;;;7.45;6.35;;;10.20;99.90;;;;;;5039821;28;21057;-34
2024/02/12 11:38:13;;;;;;;7.57;6.13;;;10.20;99.90;;;;;;5038647;28;20024;-39
2024/02/12 11:40:40;;;;;;;8.15;6.38;;;10.10;99.90;;;;;;5039264;28;20025;-35
2024/02/12 11:43:05;;;;;;;6.15;5.07;;;10.10;99.90;;;;;;5039623;28;20025;-38
2024/02/12 11:45:35;;;;;;;6.63;5.45;;;10.00;99.90;;;;;;5038768;28;20079;-35
2024/02/12 11:48:08;;;;;;;7.22;5.22;;;10.00;99.90;;;;;;5039235;28;20035;-38
2024/02/12 11:50:34;;;;;;;7.40;5.40;;;10.00;99.90;;;;;;5039925;28;20036;-34
2024/02/12 11:53:01;;;;;;;5.93;5.10;;;10.00;99.90;;;;;;5039140;28;20040;-33
2024/02/12 11:55:27;;;;;;;5.63;4.32;;;10.00;99.90;;;;;;5039581;28;20041;-35
2024/02/12 11:57:53;;;;;;;5.35;4.32;;;10.00;99.90;;;;;;5039787;28;20025;-36
2024/02/12 12:00:22;;;;;;;5.47;4.20;;;10.00;99.90;;;;;;5038527;28;20460;-38
2024/02/12 12:02:52;;;;;;;4.47;3.75;;;10.00;99.90;;;;;;5039260;28;20028;-36
2024/02/12 12:05:27;;;;;;;5.70;3.65;;;10.00;99.90;;;;;;5039205;28;20112;-36
2024/02/12 12:07:56;;;;;;;3.75;3.17;;;10.00;99.90;;;;;;5038308;28;20033;-33
2024/02/12 12:10:26;;;;;;;4.85;3.67;;;10.00;99.90;;;;;;5038650;28;20039;-36
2024/02/12 12:12:54;;;;;;;6.60;3.90;;;9.90;99.90;;;;;;5038737;28;20047;-35
2024/02/12 12:15:19;;;;;;;4.28;3.30;;;9.90;99.90;;;;;;5038664;28;20044;-37
2024/02/12 12:17:49;;;;;;;5.22;4.07;;;9.90;99.90;;;;;;5039822;28;20021;-34
2024/02/12 12:20:18;;;;;;;3.78;2.95;;;9.90;99.90;;;;;;5038488;28;20032;-34
2024/02/12 12:22:47;;;;;;;3.10;2.80;;;9.90;99.90;;;;;;5038477;28;20029;-31
2024/02/12 12:25:16;;;;;;;3.10;2.80;;;9.90;99.90;;;;;;5039264;28;20886;-34
2024/02/12 12:27:42;;;;;;;3.90;2.90;;;9.90;99.90;;;;;;5038933;28;20025;-36
2024/02/12 12:30:18;;;;;;;3.95;3.13;;;9.90;99.90;;;;;;5039085;28;20021;-37
2024/02/12 12:32:49;;;;;;;4.13;3.20;;;9.90;99.90;;;;;;5038666;28;20069;-35
2024/02/12 12:35:15;;;;;;;4.00;3.20;;;10.00;99.90;;;;;;5037110;28;20041;-35
2024/02/12 12:37:41;;;;;;;3.85;3.00;;;10.00;99.90;;;;;;5038428;28;20060;-36
2024/02/12 12:40:20;;;;;;;5.38;3.53;;;10.10;99.90;;;;;;5039081;28;20148;-35
2024/02/12 12:42:49;;;;;;;5.80;3.70;;;10.20;99.90;;;;;;5039905;28;20013;-36
2024/02/12 12:45:16;;;;;;;4.38;3.42;;;10.40;99.90;;;;;;5039505;28;20025;-35
2024/02/12 12:47:43;;;;;;;7.72;4.15;;;10.60;99.90;;;;;;5039475;28;20017;-36
2024/02/12 12:50:10;;;;;;;5.30;3.90;;;10.80;99.90;;;;;;5038245;28;20491;-31
2024/02/12 12:52:39;;;;;;;6.22;4.35;;;11.00;99.90;;;;;;5039470;28;20025;-36
2024/02/12 12:55:08;;;;;;;5.13;3.88;;;11.10;99.90;;;;;;5039125;28;20768;-35
2024/02/12 12:57:37;;;;;;;6.28;4.10;;;11.20;99.90;;;;;;5038414;28;20483;-36
2024/02/12 13:00:15;;;;;;;5.75;4.60;;;11.30;99.90;;;;;;5038200;28;20021;-34
2024/02/12 13:02:43;;;;;;;6.88;4.40;;;11.40;99.90;;;;;;5019498;28;20048;-36